createdAt,value
2022-10-03T00:00:20.995Z,86.38
2022-10-03T00:02:57.326Z,86.43
2022-10-03T00:05:46.286Z,86.34
2022-10-03T00:08:39.458Z,86.31
2022-10-03T00:11:21.871Z,86.28
2022-10-03T00:14:07.101Z,86.43
2022-10-03T00:16:46.095Z,86.54
2022-10-03T00:19:28.510Z,86.06
2022-10-03T00:22:22.782Z,86.44
2022-10-03T00:25:17.525Z,86.49
2022-10-03T00:27:50.997Z,86.46
2022-10-03T00:30:24.646Z,86.63
2022-10-03T00:33:03.759Z,86.65
2022-10-03T00:35:40.042Z,86.58
2022-10-03T00:38:39.206Z,86.37
2022-10-03T00:41:29.552Z,86.17
2022-10-03T00:44:06.360Z,86.29
2022-10-03T00:46:51.688Z,86.25
2022-10-03T00:49:37.055Z,86.37
2022-10-03T00:52:25.512Z,86.38
2022-10-03T00:55:17.019Z,86.62
2022-10-03T00:58:08.316Z,86.75
2022-10-03T01:00:41.895Z,86.87
2022-10-03T01:03:38.071Z,86.83
2022-10-03T01:06:27.138Z,86.64
2022-10-03T01:09:04.872Z,86.66
2022-10-03T01:12:05.409Z,86.75
2022-10-03T01:14:55.328Z,86.71
2022-10-03T01:17:37.820Z,86.80
2022-10-03T01:20:16.910Z,86.51
2022-10-03T01:23:02.248Z,86.56
2022-10-03T01:26:04.650Z,86.35
2022-10-03T01:29:14.421Z,86.45
2022-10-03T01:32:04.318Z,86.34
2022-10-03T01:34:58.271Z,86.38
2022-10-03T01:37:40.470Z,86.31
2022-10-03T01:40:22.542Z,86.07
2022-10-03T01:43:23.514Z,85.75
2022-10-03T01:46:06.201Z,85.65
2022-10-03T01:48:45.540Z,85.58
2022-10-03T01:51:52.374Z,85.78
2022-10-03T01:54:34.875Z,85.74
2022-10-03T01:57:21.936Z,85.83
2022-10-03T02:00:22.482Z,85.77
2022-10-03T02:03:17.167Z,85.76
2022-10-03T02:06:06.710Z,85.73
2022-10-03T02:08:40.398Z,85.56
2022-10-03T02:11:13.649Z,85.52
2022-10-03T02:13:52.888Z,85.34
2022-10-03T02:16:35.302Z,85.09
2022-10-03T02:19:19.075Z,84.98
2022-10-03T02:21:56.017Z,85.27
2022-10-03T02:24:39.638Z,85.15
2022-10-03T02:27:29.517Z,85.11
2022-10-03T02:30:19.889Z,84.63
2022-10-03T02:32:59.068Z,84.77
2022-10-03T02:35:38.752Z,84.84
2022-10-03T02:38:44.047Z,84.88
2022-10-03T02:41:42.269Z,84.47
2022-10-03T02:44:33.634Z,84.87
2022-10-03T02:47:07.247Z,84.45
2022-10-03T02:50:02.721Z,84.24
2022-10-03T02:52:58.741Z,84.70
2022-10-03T02:55:53.701Z,84.38
2022-10-03T02:58:54.416Z,84.56
2022-10-03T03:01:59.790Z,84.35
2022-10-03T03:05:07.206Z,84.58
2022-10-03T03:07:59.067Z,84.57
2022-10-03T03:10:49.859Z,84.57
2022-10-03T03:13:32.120Z,84.71
2022-10-03T03:16:05.768Z,84.77
2022-10-03T03:18:39.426Z,84.66
2022-10-03T03:21:29.602Z,84.75
2022-10-03T03:24:09.268Z,84.79
2022-10-03T03:26:57.427Z,84.86
2022-10-03T03:29:59.714Z,84.93
2022-10-03T03:32:46.001Z,84.64
2022-10-03T03:35:48.210Z,84.68
2022-10-03T03:38:39.738Z,84.59
2022-10-03T03:41:22.440Z,84.49
2022-10-03T03:44:29.703Z,84.64
2022-10-03T03:47:29.254Z,84.89
2022-10-03T03:50:20.051Z,85.15
2022-10-03T03:52:57.096Z,85.07
2022-10-03T03:55:36.465Z,85.28
2022-10-03T03:58:13.680Z,85.48
2022-10-03T04:01:07.674Z,85.42
2022-10-03T04:03:49.425Z,85.64
2022-10-03T04:06:22.815Z,85.55
2022-10-03T04:09:05.636Z,85.85
2022-10-03T04:11:51.647Z,85.32
2022-10-03T04:14:43.224Z,85.04
2022-10-03T04:17:40.725Z,85.20
2022-10-03T04:20:33.747Z,84.94
2022-10-03T04:23:30.680Z,84.89
2022-10-03T04:26:20.617Z,85.02
2022-10-03T04:29:17.091Z,84.83
2022-10-03T04:32:09.143Z,84.97
2022-10-03T04:35:02.568Z,84.87
2022-10-03T04:37:35.966Z,84.96
2022-10-03T04:40:15.086Z,84.60
2022-10-03T04:43:05.568Z,84.62
2022-10-03T04:45:59.899Z,84.85
2022-10-03T04:48:51.717Z,84.68
2022-10-03T04:51:40.806Z,84.91
2022-10-03T04:54:32.889Z,85.03
2022-10-03T04:57:18.183Z,84.86
2022-10-03T04:59:54.602Z,85.00
2022-10-03T05:02:33.975Z,84.92
2022-10-03T05:05:28.735Z,85.12
2022-10-03T05:08:05.366Z,84.69
2022-10-03T05:10:50.926Z,84.98
2022-10-03T05:13:39.531Z,84.81
2022-10-03T05:16:20.440Z,84.81
2022-10-03T05:18:56.655Z,84.61
2022-10-03T05:21:50.041Z,84.69
2022-10-03T05:24:26.719Z,84.47
2022-10-03T05:27:03.218Z,84.58
2022-10-03T05:29:39.654Z,84.69
2022-10-03T05:32:30.018Z,84.59
2022-10-03T05:35:09.374Z,84.50
2022-10-03T05:37:57.726Z,84.60
2022-10-03T05:40:31.116Z,84.44
2022-10-03T05:43:13.385Z,84.39
2022-10-03T05:45:53.184Z,84.23
2022-10-03T05:48:45.427Z,84.36
2022-10-03T05:51:18.872Z,84.13
2022-10-03T05:54:07.548Z,84.20
2022-10-03T05:56:58.923Z,84.29
2022-10-03T05:59:53.077Z,83.87
2022-10-03T06:02:45.191Z,84.26
2022-10-03T06:05:47.620Z,84.22
2022-10-03T06:08:30.199Z,84.21
2022-10-03T06:11:06.447Z,84.13
2022-10-03T06:13:43.048Z,84.29
2022-10-03T06:16:21.027Z,84.50
2022-10-03T06:18:57.409Z,84.60
2022-10-03T06:21:37.187Z,84.05
2022-10-03T06:24:27.043Z,84.03
2022-10-03T06:27:09.403Z,84.02
2022-10-03T06:29:48.597Z,84.15
2022-10-03T06:32:47.675Z,83.57
2022-10-03T06:35:40.570Z,83.47
2022-10-03T06:38:25.943Z,83.20
2022-10-03T06:41:04.682Z,82.98
2022-10-03T06:44:11.735Z,82.88
2022-10-03T06:47:06.391Z,83.14
2022-10-03T06:49:57.794Z,82.70
2022-10-03T06:53:03.318Z,82.70
2022-10-03T06:55:54.611Z,82.43
2022-10-03T06:58:51.596Z,82.12
2022-10-03T07:01:52.287Z,82.34
2022-10-03T07:04:28.933Z,82.28
2022-10-03T07:07:11.521Z,82.22
2022-10-03T07:09:58.073Z,82.44
2022-10-03T07:12:47.588Z,81.79
2022-10-03T07:16:02.188Z,81.46
2022-10-03T07:18:32.689Z,81.40
2022-10-03T07:21:18.577Z,80.27
2022-10-03T07:23:54.530Z,80.40
2022-10-03T07:26:39.702Z,80.35
2022-10-03T07:29:35.017Z,80.50
2022-10-03T07:32:22.974Z,79.21
2022-10-03T07:34:56.349Z,79.36
2022-10-03T07:38:02.963Z,78.62
2022-10-03T07:40:44.928Z,79.52
2022-10-03T07:43:27.088Z,78.97
2022-10-03T07:46:22.734Z,78.74
2022-10-03T07:49:28.537Z,78.41
2022-10-03T07:52:11.209Z,77.69
2022-10-03T07:54:50.644Z,77.09
2022-10-03T07:57:37.026Z,77.36
2022-10-03T08:00:17.071Z,76.97
2022-10-03T08:03:05.201Z,76.73
2022-10-03T08:05:44.751Z,76.61
2022-10-03T08:08:48.609Z,76.33
2022-10-03T08:11:25.919Z,75.92
2022-10-03T08:14:34.850Z,75.40
2022-10-03T08:17:27.864Z,74.86
2022-10-03T08:20:17.850Z,74.70
2022-10-03T08:23:00.379Z,75.09
2022-10-03T08:25:33.857Z,74.82
2022-10-03T08:28:22.386Z,73.87
2022-10-03T08:31:27.200Z,73.64
2022-10-03T08:34:20.736Z,73.69
2022-10-03T08:36:54.329Z,73.09
2022-10-03T08:39:44.745Z,73.26
2022-10-03T08:42:26.942Z,72.48
2022-10-03T08:45:05.910Z,72.23
2022-10-03T08:47:58.216Z,72.10
2022-10-03T08:50:39.104Z,72.05
2022-10-03T08:53:32.150Z,72.22
2022-10-03T08:56:10.992Z,71.30
2022-10-03T08:59:05.912Z,71.41
2022-10-03T09:01:55.782Z,71.17
2022-10-03T09:04:55.451Z,70.76
2022-10-03T09:07:31.610Z,69.92
2022-10-03T09:10:10.735Z,70.36
2022-10-03T09:12:44.191Z,70.68
2022-10-03T09:15:18.274Z,70.96
2022-10-03T09:18:05.351Z,71.50
2022-10-03T09:20:55.510Z,71.22
2022-10-03T09:23:48.150Z,70.47
2022-10-03T09:26:24.567Z,68.79
2022-10-03T09:29:22.684Z,67.91
2022-10-03T09:32:15.477Z,67.91
2022-10-03T09:34:57.589Z,67.52
2022-10-03T09:37:31.183Z,67.72
2022-10-03T09:40:25.650Z,67.32
2022-10-03T09:43:17.532Z,66.75
2022-10-03T09:46:23.135Z,66.99
2022-10-03T09:49:32.046Z,65.87
2022-10-03T09:52:24.642Z,66.22
2022-10-03T09:55:13.555Z,66.56
2022-10-03T09:57:49.409Z,65.97
2022-10-03T10:00:27.765Z,66.56
2022-10-03T10:03:26.720Z,66.01
2022-10-03T10:06:06.302Z,67.00
2022-10-03T10:09:00.896Z,67.35
2022-10-03T10:11:57.032Z,67.39
2022-10-03T10:14:36.452Z,67.91
2022-10-03T10:17:28.062Z,67.65
2022-10-03T10:20:11.414Z,67.24
2022-10-03T10:23:10.435Z,67.82
2022-10-03T10:25:50.030Z,67.11
2022-10-03T10:28:40.666Z,67.01
2022-10-03T10:31:30.649Z,66.72
2022-10-03T10:34:15.789Z,67.24
2022-10-03T10:37:10.024Z,66.79
2022-10-03T10:40:07.979Z,66.58
2022-10-03T10:43:03.601Z,66.44
2022-10-03T10:46:08.496Z,67.14
2022-10-03T10:49:04.538Z,65.77
2022-10-03T10:51:40.707Z,64.87
2022-10-03T10:54:35.426Z,65.64
2022-10-03T10:57:25.744Z,65.38
2022-10-03T11:00:17.673Z,66.74
2022-10-03T11:03:07.592Z,66.82
2022-10-03T11:06:09.967Z,67.09
2022-10-03T11:09:06.942Z,67.31
2022-10-03T11:12:14.093Z,66.93
2022-10-03T11:15:02.963Z,66.91
2022-10-03T11:17:45.237Z,66.66
2022-10-03T11:20:35.215Z,65.96
2022-10-03T11:23:28.512Z,65.71
2022-10-03T11:26:10.879Z,66.61
2022-10-03T11:28:49.630Z,68.22
2022-10-03T11:31:43.241Z,68.42
2022-10-03T11:34:28.667Z,69.46
2022-10-03T11:37:07.378Z,68.33
2022-10-03T11:39:49.620Z,68.84
2022-10-03T11:42:39.336Z,69.63
2022-10-03T11:45:27.712Z,69.47
2022-10-03T11:48:01.280Z,70.18
2022-10-03T11:50:49.323Z,69.95
2022-10-03T11:53:31.863Z,70.29
2022-10-03T11:56:05.315Z,69.49
2022-10-03T11:58:53.978Z,69.87
2022-10-03T12:01:30.926Z,69.50
2022-10-03T12:04:10.316Z,68.93
2022-10-03T12:07:15.939Z,68.49
2022-10-03T12:10:07.309Z,67.84
2022-10-03T12:12:45.952Z,67.45
2022-10-03T12:15:38.111Z,68.30
2022-10-03T12:18:20.724Z,69.91
2022-10-03T12:21:12.185Z,70.59
2022-10-03T12:24:08.152Z,69.00
2022-10-03T12:26:44.568Z,69.27
2022-10-03T12:29:18.275Z,69.82
2022-10-03T12:31:54.338Z,70.91
2022-10-03T12:34:40.172Z,70.92
2022-10-03T12:37:24.584Z,70.68
2022-10-03T12:40:27.548Z,70.12
2022-10-03T12:43:06.907Z,69.28
2022-10-03T12:45:58.499Z,68.37
2022-10-03T12:48:42.324Z,67.50
2022-10-03T12:51:36.742Z,66.50
2022-10-03T12:54:10.739Z,67.57
2022-10-03T12:56:50.458Z,68.31
2022-10-03T12:59:40.740Z,68.48
2022-10-03T13:02:20.346Z,69.73
2022-10-03T13:05:15.254Z,69.28
2022-10-03T13:08:03.951Z,69.34
2022-10-03T13:10:47.762Z,68.93
2022-10-03T13:13:27.787Z,68.51
2022-10-03T13:16:21.023Z,67.69
2022-10-03T13:18:54.528Z,67.52
2022-10-03T13:21:45.906Z,66.80
2022-10-03T13:24:25.689Z,65.86
2022-10-03T13:27:16.766Z,65.54
2022-10-03T13:29:50.900Z,65.29
2022-10-03T13:32:33.833Z,65.17
2022-10-03T13:35:37.095Z,64.74
2022-10-03T13:38:19.310Z,63.97
2022-10-03T13:40:52.863Z,63.56
2022-10-03T13:43:26.357Z,63.67
2022-10-03T13:45:57.459Z,63.42
2022-10-03T13:48:29.139Z,63.77
2022-10-03T13:51:02.695Z,63.70
2022-10-03T13:54:01.462Z,64.24
2022-10-03T13:56:51.437Z,64.63
2022-10-03T13:59:47.911Z,65.22
2022-10-03T14:02:54.710Z,66.13
2022-10-03T14:05:37.261Z,66.78
2022-10-03T14:08:19.597Z,66.84
2022-10-03T14:10:55.937Z,67.04
2022-10-03T14:13:52.564Z,67.56
2022-10-03T14:16:34.867Z,68.01
2022-10-03T14:19:14.267Z,68.72
2022-10-03T14:22:02.979Z,69.08
2022-10-03T14:24:54.494Z,69.50
2022-10-03T14:27:42.577Z,68.79
2022-10-03T14:30:27.687Z,69.27
2022-10-03T14:33:20.661Z,69.33
2022-10-03T14:36:00.145Z,69.08
2022-10-03T14:39:03.544Z,68.00
2022-10-03T14:41:46.899Z,68.08
2022-10-03T14:44:41.187Z,66.15
2022-10-03T14:47:15.773Z,66.25
2022-10-03T14:49:59.493Z,66.36
2022-10-03T14:52:48.019Z,66.51
2022-10-03T14:55:29.725Z,67.06
2022-10-03T14:58:11.515Z,67.87
2022-10-03T15:01:04.831Z,68.35
2022-10-03T15:03:41.331Z,68.41
2022-10-03T15:06:16.125Z,68.26
2022-10-03T15:08:59.531Z,68.62
2022-10-03T15:11:38.724Z,68.88
2022-10-03T15:14:11.068Z,68.85
2022-10-03T15:16:47.506Z,68.31
2022-10-03T15:19:25.357Z,68.49
2022-10-03T15:21:58.833Z,68.30
2022-10-03T15:24:35.138Z,68.57
2022-10-03T15:27:08.692Z,68.50
2022-10-03T15:29:41.285Z,68.68
2022-10-03T15:32:20.620Z,68.89
2022-10-03T15:34:54.952Z,68.48
2022-10-03T15:37:28.363Z,68.61
2022-10-03T15:40:04.762Z,68.62
2022-10-03T15:42:39.818Z,69.08
2022-10-03T15:45:13.421Z,69.61
2022-10-03T15:47:46.573Z,69.38
2022-10-03T15:50:23.168Z,69.90
2022-10-03T15:53:12.375Z,69.70
2022-10-03T15:55:38.509Z,69.66
2022-10-03T15:58:27.103Z,70.26
2022-10-03T16:01:18.485Z,70.52
2022-10-03T16:03:52.413Z,70.69
2022-10-03T16:06:53.066Z,70.75
2022-10-03T16:09:27.061Z,71.12
2022-10-03T16:12:03.448Z,71.23
2022-10-03T16:14:42.888Z,71.41
2022-10-03T16:17:35.958Z,71.62
2022-10-03T16:20:21.502Z,73.22
2022-10-03T16:22:58.223Z,74.19
2022-10-03T16:25:54.088Z,74.60
2022-10-03T16:28:28.279Z,75.16
2022-10-03T16:31:02.165Z,74.60
2022-10-03T16:33:36.129Z,75.19
2022-10-03T16:36:10.617Z,75.04
2022-10-03T16:38:43.786Z,75.04
2022-10-03T16:41:21.284Z,74.92
2022-10-03T16:44:00.511Z,75.29
2022-10-03T16:46:37.235Z,74.91
2022-10-03T16:49:46.936Z,74.86
2022-10-03T16:52:20.468Z,74.67
2022-10-03T16:54:59.374Z,74.30
2022-10-03T16:57:38.531Z,74.48
2022-10-03T17:00:12.189Z,74.54
2022-10-03T17:02:42.830Z,74.64
2022-10-03T17:05:15.353Z,74.34
2022-10-03T17:07:49.183Z,73.93
2022-10-03T17:10:34.766Z,73.89
2022-10-03T17:13:16.826Z,74.30
2022-10-03T17:16:05.184Z,74.19
2022-10-03T17:18:47.870Z,74.17
2022-10-03T17:21:24.194Z,74.09
2022-10-03T17:24:06.661Z,74.11
2022-10-03T17:26:40.141Z,74.37
2022-10-03T17:29:24.002Z,74.86
2022-10-03T17:32:14.303Z,75.40
2022-10-03T17:34:58.469Z,75.71
2022-10-03T17:37:49.878Z,75.96
2022-10-03T17:40:58.525Z,76.24
2022-10-03T17:43:53.314Z,76.17
2022-10-03T17:46:27.390Z,76.64
2022-10-03T17:49:09.715Z,76.70
2022-10-03T17:51:49.031Z,76.81
2022-10-03T17:54:22.530Z,76.99
2022-10-03T17:56:56.761Z,77.49
2022-10-03T17:59:33.150Z,77.65
2022-10-03T18:02:09.224Z,78.19
2022-10-03T18:04:45.646Z,78.34
2022-10-03T18:07:22.970Z,78.37
2022-10-03T18:09:55.628Z,77.88
2022-10-03T18:12:42.161Z,77.93
2022-10-03T18:15:35.337Z,78.07
2022-10-03T18:18:41.126Z,78.32
2022-10-03T18:21:34.308Z,78.50
2022-10-03T18:24:31.864Z,78.58
2022-10-03T18:27:20.134Z,78.69
2022-10-03T18:29:59.551Z,79.08
2022-10-03T18:32:32.538Z,79.44
2022-10-03T18:35:17.942Z,79.29
2022-10-03T18:37:55.278Z,80.04
2022-10-03T18:40:37.355Z,80.92
2022-10-03T18:43:07.743Z,81.83
2022-10-03T18:45:41.689Z,82.30
2022-10-03T18:48:16.430Z,82.80
2022-10-03T18:51:11.422Z,83.14
2022-10-03T18:53:51.266Z,83.45
2022-10-03T18:56:25.121Z,84.04
2022-10-03T18:59:10.506Z,84.14
2022-10-03T19:01:53.167Z,84.39
2022-10-03T19:04:32.631Z,84.73
2022-10-03T19:07:05.376Z,84.94
2022-10-03T19:09:38.910Z,84.81
2022-10-03T19:12:23.690Z,84.87
2022-10-03T19:15:19.574Z,85.11
2022-10-03T19:18:01.756Z,85.23
2022-10-03T19:20:41.231Z,85.23
2022-10-03T19:23:22.522Z,85.07
2022-10-03T19:25:58.834Z,85.16
2022-10-03T19:28:35.536Z,85.20
2022-10-03T19:31:11.861Z,85.32
2022-10-03T19:33:48.281Z,85.20
2022-10-03T19:36:21.724Z,84.98
2022-10-03T19:38:54.767Z,85.32
2022-10-03T19:41:46.279Z,85.76
2022-10-03T19:44:19.590Z,86.10
2022-10-03T19:46:58.911Z,86.03
2022-10-03T19:49:33.521Z,86.21
2022-10-03T19:52:28.204Z,86.17
2022-10-03T19:55:19.458Z,86.24
2022-10-03T19:58:01.927Z,86.16
2022-10-03T20:00:37.127Z,86.16
2022-10-03T20:03:23.836Z,86.10
2022-10-03T20:06:03.255Z,86.13
2022-10-03T20:08:36.947Z,86.05
2022-10-03T20:11:12.781Z,86.00
2022-10-03T20:13:46.148Z,85.94
2022-10-03T20:16:19.317Z,85.77
2022-10-03T20:18:53.191Z,85.80
2022-10-03T20:21:26.578Z,85.57
2022-10-03T20:23:58.311Z,85.44
2022-10-03T20:26:41.013Z,85.56
2022-10-03T20:29:17.523Z,85.59
2022-10-03T20:31:48.500Z,85.47
2022-10-03T20:34:22.013Z,85.33
2022-10-03T20:37:04.185Z,85.37
2022-10-03T20:39:38.051Z,85.27
2022-10-03T20:42:11.493Z,85.36
2022-10-03T20:44:56.508Z,85.32
2022-10-03T20:47:49.706Z,85.39
2022-10-03T20:50:23.234Z,85.41
2022-10-03T20:53:08.696Z,85.59
2022-10-03T20:55:42.139Z,85.43
2022-10-03T20:58:27.297Z,85.46
2022-10-03T21:01:03.321Z,85.41
2022-10-03T21:03:56.620Z,85.46
2022-10-03T21:06:30.249Z,85.63
2022-10-03T21:09:02.512Z,85.63
2022-10-03T21:11:35.416Z,85.46
2022-10-03T21:14:17.865Z,85.57
2022-10-03T21:16:53.057Z,85.41
2022-10-03T21:19:35.359Z,85.63
2022-10-03T21:22:30.459Z,85.79
2022-10-03T21:25:03.766Z,85.86
2022-10-03T21:27:36.614Z,85.90
2022-10-03T21:30:12.860Z,85.93
2022-10-03T21:32:46.369Z,86.06
2022-10-03T21:35:31.745Z,85.94
2022-10-03T21:38:29.515Z,85.83
2022-10-03T21:41:03.670Z,85.97
2022-10-03T21:43:52.384Z,86.03
2022-10-03T21:46:45.513Z,86.05
2022-10-03T21:49:27.820Z,86.00
2022-10-03T21:52:25.258Z,86.13
2022-10-03T21:55:45.468Z,86.20
2022-10-03T21:58:16.669Z,86.27
2022-10-03T22:01:05.168Z,86.27
2022-10-03T22:03:41.795Z,86.29
2022-10-03T22:06:17.651Z,86.19
2022-10-03T22:08:50.201Z,86.15
2022-10-03T22:11:35.905Z,86.20
2022-10-03T22:14:44.093Z,86.12
2022-10-03T22:17:35.362Z,86.16
2022-10-03T22:20:23.835Z,86.16
2022-10-03T22:23:19.835Z,86.22
2022-10-03T22:26:10.506Z,86.24
2022-10-03T22:29:04.589Z,86.09
2022-10-03T22:31:41.107Z,86.14
2022-10-03T22:34:34.299Z,86.19
2022-10-03T22:37:04.901Z,86.22
2022-10-03T22:39:37.109Z,86.14
2022-10-03T22:42:08.150Z,86.10
2022-10-03T22:44:40.630Z,86.15
2022-10-03T22:47:19.945Z,86.25
2022-10-03T22:49:55.187Z,85.97
2022-10-03T22:52:31.485Z,86.17
2022-10-03T22:55:04.661Z,86.08
2022-10-03T22:57:36.068Z,85.99
2022-10-03T23:00:10.722Z,85.72
2022-10-03T23:02:44.158Z,85.99
2022-10-03T23:05:23.109Z,85.72
2022-10-03T23:08:05.465Z,85.82
2022-10-03T23:10:47.650Z,85.78
2022-10-03T23:13:24.173Z,85.87
2022-10-03T23:15:57.701Z,85.87
2022-10-03T23:18:39.508Z,85.98
2022-10-03T23:21:12.245Z,86.11
2022-10-03T23:24:09.927Z,86.08
2022-10-03T23:26:49.476Z,86.08
2022-10-03T23:29:21.499Z,86.01
2022-10-03T23:32:00.419Z,85.97
2022-10-03T23:34:41.582Z,86.01
2022-10-03T23:37:17.693Z,86.10
2022-10-03T23:40:03.031Z,85.83
2022-10-03T23:42:45.070Z,85.85
2022-10-03T23:45:24.179Z,85.83
2022-10-03T23:48:10.150Z,85.88
2022-10-03T23:50:52.767Z,85.81
2022-10-03T23:53:53.459Z,85.65
2022-10-03T23:56:29.787Z,85.56
2022-10-03T23:59:05.653Z,85.28
